• Join FlightAware (Why Join?)
  • Login
  • US Flag 
03:42AM EDT


 

Airport Tracker/Info


-or-


 

Live Flight TrackerFlight Track Log ✈ SKW5631 ✈ 02-May-2013 ✈ KSFO - KBFL

Flight Track Log - Related Links

Times and Time Zones

All times are in EDT time to prevent confusion due to time zone crossing. See the SKW5631 flight status page for this flight to view local times or setup timezone preferences in your user account.

Time Position Orientation Groundspeed Altitude Reporting Facility
EDT Latitude Longitude Course Direction KTS MPH feet Rate Location/Type
06:37PM 37.6333 -122.3667 58° Northeast 143 165 600  Level Northern Cal TRACON
06:38PM 37.6500 -122.3333 58° Northeast 169 194 1,800 1,320 Climbing Northern Cal TRACON
06:39PM 37.7000 -122.2833 38° Northeast 193 222 3,200 1,500 Climbing Northern Cal TRACON
06:40PM 37.6989 -122.2681 95° East 183 211 3,700 1,680 Climbing Oakland Center
06:41PM 37.7283 -122.2108 57° Northeast 200 230 5,400 1,560 Climbing Oakland Center
06:42PM 37.7389 -122.1417 79° East 201 231 7,000 1,620 Climbing Oakland Center
06:43PM 37.7258 -122.0736 104° East 203 234 8,700 1,740 Climbing Oakland Center
06:44PM 37.7039 -122.0092 113° Southeast 201 231 10,600 1,740 Climbing Oakland Center
06:45PM 37.6819 -121.9472 114° Southeast 195 224 12,300 1,560 Climbing Oakland Center
06:46PM 37.6606 -121.8853 114° Southeast 193 222 13,800 1,440 Climbing Oakland Center
06:46PM 37.6333 -121.8333 123° Southeast 215 247 14,700 1,260 Climbing Northern Cal TRACON
06:49PM 37.5753 -121.6575 113° Southeast 229 264 17,700 1,080 Climbing Oakland Center
06:50PM 37.5489 -121.5828 114° Southeast 233 268 18,600 720 Climbing Oakland Center
06:51PM 37.5144 -121.5086 120° Southeast 242 278 19,200 660 Climbing Oakland Center
06:52PM 37.4761 -121.4336 123° Southeast 252 290 20,000 780 Climbing Oakland Center
06:53PM 37.4394 -121.3569 121° Southeast 255 293 20,800 660 Climbing Oakland Center
06:54PM 37.4033 -121.2800 121° Southeast 255 293 21,400 540 Climbing Oakland Center
06:55PM 37.3667 -121.2008 120° Southeast 259 298 22,000 600 Climbing Oakland Center
06:56PM 37.3275 -121.1253 123° Southeast 259 298 22,700 480 Climbing Oakland Center
06:57PM 37.2817 -121.0331 122° Southeast 259 298 23,000 120 Climbing Oakland Center
06:58PM 37.2431 -120.9525 121° Southeast 265 305 23,000  Level Oakland Center
06:59PM 37.2053 -120.8722 121° Southeast 268 308 23,000  Level Oakland Center
07:00PM 37.1656 -120.7931 122° Southeast 273 314 23,000  Level Oakland Center
07:01PM 37.1289 -120.7150 120° Southeast 266 306 23,000  Level Oakland Center
07:02PM 37.0889 -120.6378 123° Southeast 262 302 23,000  Level Oakland Center
07:03PM 37.0536 -120.5603 120° Southeast 265 305 23,000  Level Oakland Center
07:04PM 37.0147 -120.4831 122° Southeast 260 299 23,000  Level Oakland Center
07:05PM 36.9758 -120.4061 122° Southeast 262 302 23,000  Level Oakland Center
07:06PM 36.9308 -120.3131 121° Southeast 260 299 23,000  Level Oakland Center
07:07PM 36.8922 -120.2361 122° Southeast 261 300 23,000  Level Oakland Center
07:08PM 36.8539 -120.1586 122° Southeast 260 299 23,000  Level Oakland Center
07:09PM 36.8158 -120.0814 122° Southeast 262 302 23,000  Level Oakland Center
07:10PM 36.7772 -120.0033 122° Southeast 263 303 23,000  Level Oakland Center
07:11PM 36.7383 -119.9258 122° Southeast 264 304 23,000  Level Oakland Center
07:12PM 36.6994 -119.8472 122° Southeast 266 306 23,000  Level Oakland Center
07:13PM 36.6608 -119.7686 121° Southeast 266 306 23,000  Level Oakland Center
07:14PM 36.6225 -119.6906 121° Southeast 264 304 23,000  Level Oakland Center
07:15PM 36.5614 -119.6461 150° Southeast 260 299 23,000  Level Oakland Center
07:16PM 36.4819 -119.6036 157° South 258 297 23,000  Level Oakland Center
07:17PM 36.4156 -119.5689 157° South 258 297 23,000  Level Oakland Center
07:18PM 36.3494 -119.5342 157° South 258 297 23,000  Level Oakland Center
07:19PM 36.2831 -119.5014 158° South 257 296 23,000 -600 Level Oakland Center
07:20PM 36.2111 -119.4647 158° South 277 319 21,800 -1,080 Descending Oakland Center
07:21PM 36.1306 -119.4239 158° South 311 358 20,800 -1,140 Descending Oakland Center
07:22PM 36.0492 -119.3822 158° South 316 364 19,600 -1,140 Descending Oakland Center
07:23PM 35.9667 -119.3431 159° South 316 364 18,500 -1,020 Descending Oakland Center
07:25PM 35.8897 -119.3025 157° South 304 350 17,600 -1,140 Descending Oakland Center
07:26PM 35.7964 -119.2561 158° South 301 346 16,200 -1,320 Descending Oakland Center
07:27PM 35.7200 -119.2172 158° South 298 343 15,000 -1,440 Descending Oakland Center
07:28PM 35.6475 -119.1811 158° South 289 333 13,300 -1,800 Descending Oakland Center
07:28PM 35.6225 -119.1639 151° Southeast 275 316 12,200 -3,060 Descending Los Angeles Center
07:29PM 35.5608 -119.0825 133° Southeast 271 312 8,500 -2,520 Descending Los Angeles Center
07:30PM 35.5119 -119.0178 133° Southeast 269 310 7,100 -1,380 Descending Los Angeles Center
07:31PM 35.4717 -118.9625 132° Southeast 248 285 5,700 -1,260 Descending Los Angeles Center
07:32PM 35.4253 -118.9433 161° South 221 254 4,500 -1,200 Descending Los Angeles Center
07:35PM 35.4333 -119.0500 151° Southeast  Level FlightAware Approximate
07:42PM 35.4339 -119.0577 151° Southeast  Level Estimated